sensor_id;sensor_type;location;lat;lon;timestamp;P1;durP1;ratioP1;P2;durP2;ratioP2
67278;SDS011;54193;53.746;10.058;2023-04-24T00:02:27;9.97;;;4.63;;
67278;SDS011;54193;53.746;10.058;2023-04-24T00:05:13;11.27;;;4.32;;
67278;SDS011;54193;53.746;10.058;2023-04-24T00:07:59;11.65;;;5.50;;
67278;SDS011;54193;53.746;10.058;2023-04-24T00:10:45;5.53;;;2.92;;
67278;SDS011;54193;53.746;10.058;2023-04-24T00:13:31;9.18;;;5.00;;
67278;SDS011;54193;53.746;10.058;2023-04-24T00:16:17;10.48;;;5.78;;
67278;SDS011;54193;53.746;10.058;2023-04-24T00:19:02;11.85;;;5.57;;
67278;SDS011;54193;53.746;10.058;2023-04-24T00:21:48;10.43;;;5.40;;
67278;SDS011;54193;53.746;10.058;2023-04-24T00:24:36;10.25;;;4.57;;
67278;SDS011;54193;53.746;10.058;2023-04-24T00:27:22;10.88;;;5.20;;
67278;SDS011;54193;53.746;10.058;2023-04-24T00:30:08;12.87;;;5.77;;
67278;SDS011;54193;53.746;10.058;2023-04-24T00:32:54;9.15;;;4.97;;
67278;SDS011;54193;53.746;10.058;2023-04-24T00:35:40;10.65;;;5.05;;
67278;SDS011;54193;53.746;10.058;2023-04-24T00:38:26;12.82;;;6.05;;
67278;SDS011;54193;53.746;10.058;2023-04-24T00:41:11;12.00;;;5.97;;
67278;SDS011;54193;53.746;10.058;2023-04-24T00:43:57;10.77;;;5.30;;
67278;SDS011;54193;53.746;10.058;2023-04-24T00:46:43;11.32;;;5.90;;
67278;SDS011;54193;53.746;10.058;2023-04-24T00:49:28;10.93;;;5.93;;
67278;SDS011;54193;53.746;10.058;2023-04-24T00:52:14;13.43;;;6.63;;
67278;SDS011;54193;53.746;10.058;2023-04-24T00:55:02;13.02;;;6.25;;
67278;SDS011;54193;53.746;10.058;2023-04-24T00:57:48;12.93;;;6.97;;
67278;SDS011;54193;53.746;10.058;2023-04-24T01:00:34;13.32;;;6.50;;
67278;SDS011;54193;53.746;10.058;2023-04-24T01:03:24;12.93;;;6.45;;
67278;SDS011;54193;53.746;10.058;2023-04-24T01:06:11;12.90;;;6.10;;
67278;SDS011;54193;53.746;10.058;2023-04-24T01:08:58;13.15;;;5.93;;
67278;SDS011;54193;53.746;10.058;2023-04-24T01:11:44;14.10;;;6.60;;
67278;SDS011;54193;53.746;10.058;2023-04-24T01:14:30;12.98;;;6.03;;
67278;SDS011;54193;53.746;10.058;2023-04-24T01:17:16;13.93;;;6.87;;
67278;SDS011;54193;53.746;10.058;2023-04-24T01:20:02;9.30;;;5.00;;
67278;SDS011;54193;53.746;10.058;2023-04-24T01:22:51;12.85;;;6.45;;
67278;SDS011;54193;53.746;10.058;2023-04-24T01:25:38;7.20;;;4.27;;
67278;SDS011;54193;53.746;10.058;2023-04-24T01:28:24;15.35;;;6.68;;
67278;SDS011;54193;53.746;10.058;2023-04-24T01:31:10;14.77;;;7.20;;
67278;SDS011;54193;53.746;10.058;2023-04-24T01:33:55;17.58;;;7.50;;
67278;SDS011;54193;53.746;10.058;2023-04-24T01:36:41;12.48;;;5.75;;
67278;SDS011;54193;53.746;10.058;2023-04-24T01:39:28;14.82;;;7.25;;
67278;SDS011;54193;53.746;10.058;2023-04-24T01:42:14;15.07;;;7.20;;
67278;SDS011;54193;53.746;10.058;2023-04-24T01:45:00;15.23;;;7.37;;
67278;SDS011;54193;53.746;10.058;2023-04-24T01:47:48;13.50;;;6.35;;
67278;SDS011;54193;53.746;10.058;2023-04-24T01:50:35;10.82;;;5.30;;
67278;SDS011;54193;53.746;10.058;2023-04-24T01:53:20;13.47;;;6.57;;
67278;SDS011;54193;53.746;10.058;2023-04-24T01:56:06;13.10;;;6.50;;
67278;SDS011;54193;53.746;10.058;2023-04-24T01:58:52;11.68;;;6.72;;
67278;SDS011;54193;53.746;10.058;2023-04-24T02:01:39;13.30;;;6.40;;
67278;SDS011;54193;53.746;10.058;2023-04-24T02:04:25;13.57;;;6.78;;
67278;SDS011;54193;53.746;10.058;2023-04-24T02:07:11;12.45;;;6.28;;
67278;SDS011;54193;53.746;10.058;2023-04-24T02:09:56;10.35;;;4.70;;
67278;SDS011;54193;53.746;10.058;2023-04-24T02:12:42;11.50;;;6.10;;
67278;SDS011;54193;53.746;10.058;2023-04-24T02:15:28;11.88;;;6.13;;
67278;SDS011;54193;53.746;10.058;2023-04-24T02:18:13;12.45;;;6.35;;
67278;SDS011;54193;53.746;10.058;2023-04-24T02:20:59;11.07;;;5.77;;
67278;SDS011;54193;53.746;10.058;2023-04-24T02:23:45;9.35;;;4.72;;
67278;SDS011;54193;53.746;10.058;2023-04-24T02:26:30;8.75;;;4.78;;
67278;SDS011;54193;53.746;10.058;2023-04-24T02:29:17;9.27;;;4.68;;
67278;SDS011;54193;53.746;10.058;2023-04-24T02:32:03;8.43;;;4.55;;
67278;SDS011;54193;53.746;10.058;2023-04-24T02:34:48;7.93;;;4.63;;
67278;SDS011;54193;53.746;10.058;2023-04-24T02:37:34;7.90;;;4.28;;
67278;SDS011;54193;53.746;10.058;2023-04-24T02:40:20;8.63;;;3.67;;
67278;SDS011;54193;53.746;10.058;2023-04-24T02:43:05;7.35;;;4.05;;
67278;SDS011;54193;53.746;10.058;2023-04-24T02:45:51;5.57;;;2.50;;
67278;SDS011;54193;53.746;10.058;2023-04-24T02:48:37;7.60;;;3.50;;
67278;SDS011;54193;53.746;10.058;2023-04-24T02:51:22;5.82;;;2.95;;
67278;SDS011;54193;53.746;10.058;2023-04-24T02:54:08;6.68;;;3.20;;
67278;SDS011;54193;53.746;10.058;2023-04-24T02:56:55;5.90;;;3.10;;
67278;SDS011;54193;53.746;10.058;2023-04-24T02:59:42;5.13;;;2.58;;
67278;SDS011;54193;53.746;10.058;2023-04-24T03:02:27;4.57;;;2.50;;
67278;SDS011;54193;53.746;10.058;2023-04-24T03:05:13;5.50;;;2.85;;
67278;SDS011;54193;53.746;10.058;2023-04-24T03:07:59;5.97;;;2.67;;
67278;SDS011;54193;53.746;10.058;2023-04-24T03:10:44;5.90;;;2.90;;
67278;SDS011;54193;53.746;10.058;2023-04-24T03:13:30;6.88;;;3.08;;
67278;SDS011;54193;53.746;10.058;2023-04-24T03:16:16;6.23;;;3.20;;
67278;SDS011;54193;53.746;10.058;2023-04-24T03:19:01;6.55;;;3.15;;
67278;SDS011;54193;53.746;10.058;2023-04-24T03:21:47;6.38;;;3.00;;
67278;SDS011;54193;53.746;10.058;2023-04-24T03:24:34;6.15;;;3.17;;
67278;SDS011;54193;53.746;10.058;2023-04-24T03:27:20;8.02;;;4.07;;
67278;SDS011;54193;53.746;10.058;2023-04-24T03:30:08;6.80;;;3.63;;
67278;SDS011;54193;53.746;10.058;2023-04-24T03:32:54;6.93;;;3.78;;
67278;SDS011;54193;53.746;10.058;2023-04-24T03:35:39;7.60;;;3.37;;
67278;SDS011;54193;53.746;10.058;2023-04-24T03:38:26;7.35;;;4.00;;
67278;SDS011;54193;53.746;10.058;2023-04-24T03:41:12;7.53;;;4.20;;
67278;SDS011;54193;53.746;10.058;2023-04-24T03:43:57;7.57;;;3.10;;
67278;SDS011;54193;53.746;10.058;2023-04-24T03:46:43;7.22;;;3.00;;
67278;SDS011;54193;53.746;10.058;2023-04-24T03:49:28;6.78;;;3.30;;
67278;SDS011;54193;53.746;10.058;2023-04-24T03:52:14;5.82;;;2.70;;
67278;SDS011;54193;53.746;10.058;2023-04-24T03:55:00;8.32;;;3.90;;
67278;SDS011;54193;53.746;10.058;2023-04-24T03:57:45;6.10;;;2.80;;
67278;SDS011;54193;53.746;10.058;2023-04-24T04:00:31;7.68;;;3.10;;
67278;SDS011;54193;53.746;10.058;2023-04-24T04:03:17;8.13;;;3.10;;
67278;SDS011;54193;53.746;10.058;2023-04-24T04:06:03;7.15;;;3.50;;
67278;SDS011;54193;53.746;10.058;2023-04-24T04:08:48;7.03;;;3.40;;
67278;SDS011;54193;53.746;10.058;2023-04-24T04:11:34;6.57;;;3.13;;
67278;SDS011;54193;53.746;10.058;2023-04-24T04:14:21;6.82;;;2.90;;
67278;SDS011;54193;53.746;10.058;2023-04-24T04:17:08;6.80;;;2.72;;
67278;SDS011;54193;53.746;10.058;2023-04-24T04:19:54;5.72;;;2.92;;
67278;SDS011;54193;53.746;10.058;2023-04-24T04:22:40;5.32;;;2.75;;
67278;SDS011;54193;53.746;10.058;2023-04-24T04:25:26;7.10;;;3.40;;
67278;SDS011;54193;53.746;10.058;2023-04-24T04:28:11;7.30;;;3.00;;
67278;SDS011;54193;53.746;10.058;2023-04-24T04:30:57;4.50;;;2.13;;
67278;SDS011;54193;53.746;10.058;2023-04-24T04:33:43;5.60;;;2.72;;
67278;SDS011;54193;53.746;10.058;2023-04-24T04:36:29;5.82;;;2.83;;
67278;SDS011;54193;53.746;10.058;2023-04-24T04:39:15;4.80;;;2.70;;
67278;SDS011;54193;53.746;10.058;2023-04-24T04:42:01;5.05;;;2.50;;
67278;SDS011;54193;53.746;10.058;2023-04-24T04:44:47;5.03;;;2.00;;
67278;SDS011;54193;53.746;10.058;2023-04-24T04:47:33;5.55;;;2.45;;
67278;SDS011;54193;53.746;10.058;2023-04-24T04:50:18;4.72;;;1.65;;
67278;SDS011;54193;53.746;10.058;2023-04-24T04:53:04;6.63;;;2.67;;
67278;SDS011;54193;53.746;10.058;2023-04-24T04:55:50;5.00;;;2.30;;
67278;SDS011;54193;53.746;10.058;2023-04-24T04:58:36;6.33;;;2.60;;
67278;SDS011;54193;53.746;10.058;2023-04-24T05:01:22;4.55;;;2.10;;
67278;SDS011;54193;53.746;10.058;2023-04-24T05:04:08;5.05;;;2.10;;
67278;SDS011;54193;53.746;10.058;2023-04-24T05:06:54;6.10;;;2.00;;
67278;SDS011;54193;53.746;10.058;2023-04-24T05:09:39;4.60;;;1.80;;
67278;SDS011;54193;53.746;10.058;2023-04-24T05:12:25;4.68;;;2.30;;
67278;SDS011;54193;53.746;10.058;2023-04-24T05:15:11;3.60;;;1.90;;
67278;SDS011;54193;53.746;10.058;2023-04-24T05:17:56;4.03;;;1.80;;
67278;SDS011;54193;53.746;10.058;2023-04-24T05:20:42;3.88;;;2.00;;
67278;SDS011;54193;53.746;10.058;2023-04-24T05:23:29;2.80;;;1.40;;
67278;SDS011;54193;53.746;10.058;2023-04-24T05:26:14;3.53;;;1.43;;
67278;SDS011;54193;53.746;10.058;2023-04-24T05:29:01;3.60;;;1.75;;
67278;SDS011;54193;53.746;10.058;2023-04-24T05:31:47;3.50;;;1.70;;
67278;SDS011;54193;53.746;10.058;2023-04-24T05:34:33;3.67;;;1.67;;
67278;SDS011;54193;53.746;10.058;2023-04-24T05:37:18;2.55;;;1.20;;
67278;SDS011;54193;53.746;10.058;2023-04-24T05:40:04;3.50;;;1.63;;
67278;SDS011;54193;53.746;10.058;2023-04-24T05:42:50;5.05;;;1.70;;
67278;SDS011;54193;53.746;10.058;2023-04-24T05:45:36;3.63;;;1.80;;
67278;SDS011;54193;53.746;10.058;2023-04-24T05:48:22;4.75;;;2.22;;
67278;SDS011;54193;53.746;10.058;2023-04-24T05:51:09;3.75;;;1.50;;
67278;SDS011;54193;53.746;10.058;2023-04-24T05:53:54;3.70;;;1.80;;
67278;SDS011;54193;53.746;10.058;2023-04-24T05:56:40;3.25;;;1.45;;
67278;SDS011;54193;53.746;10.058;2023-04-24T05:59:26;3.67;;;1.92;;
67278;SDS011;54193;53.746;10.058;2023-04-24T06:02:11;3.97;;;1.87;;
67278;SDS011;54193;53.746;10.058;2023-04-24T06:04:58;3.90;;;1.60;;
67278;SDS011;54193;53.746;10.058;2023-04-24T06:07:44;3.88;;;1.80;;
67278;SDS011;54193;53.746;10.058;2023-04-24T06:10:31;3.58;;;1.80;;
67278;SDS011;54193;53.746;10.058;2023-04-24T06:13:16;3.30;;;1.65;;
67278;SDS011;54193;53.746;10.058;2023-04-24T06:16:02;4.15;;;2.10;;
67278;SDS011;54193;53.746;10.058;2023-04-24T06:18:48;3.03;;;1.30;;
67278;SDS011;54193;53.746;10.058;2023-04-24T06:21:33;3.80;;;1.67;;
67278;SDS011;54193;53.746;10.058;2023-04-24T06:24:19;4.38;;;2.05;;
67278;SDS011;54193;53.746;10.058;2023-04-24T06:27:05;5.05;;;2.25;;
67278;SDS011;54193;53.746;10.058;2023-04-24T06:29:51;3.57;;;1.67;;
67278;SDS011;54193;53.746;10.058;2023-04-24T06:32:39;3.78;;;1.52;;
67278;SDS011;54193;53.746;10.058;2023-04-24T06:35:25;4.28;;;1.70;;
67278;SDS011;54193;53.746;10.058;2023-04-24T06:38:11;2.95;;;1.20;;
67278;SDS011;54193;53.746;10.058;2023-04-24T06:40:56;3.58;;;1.80;;
67278;SDS011;54193;53.746;10.058;2023-04-24T06:43:42;5.00;;;1.90;;
67278;SDS011;54193;53.746;10.058;2023-04-24T06:46:28;3.83;;;2.00;;
67278;SDS011;54193;53.746;10.058;2023-04-24T06:49:14;3.23;;;1.70;;
67278;SDS011;54193;53.746;10.058;2023-04-24T06:52:01;2.90;;;1.48;;
67278;SDS011;54193;53.746;10.058;2023-04-24T06:54:46;3.47;;;1.90;;
67278;SDS011;54193;53.746;10.058;2023-04-24T06:57:32;4.00;;;2.10;;
67278;SDS011;54193;53.746;10.058;2023-04-24T07:00:18;3.50;;;1.52;;
67278;SDS011;54193;53.746;10.058;2023-04-24T07:03:04;3.42;;;1.60;;
67278;SDS011;54193;53.746;10.058;2023-04-24T07:05:52;3.47;;;1.45;;
67278;SDS011;54193;53.746;10.058;2023-04-24T07:08:40;3.45;;;1.38;;
67278;SDS011;54193;53.746;10.058;2023-04-24T07:11:27;3.33;;;1.60;;
67278;SDS011;54193;53.746;10.058;2023-04-24T07:14:14;3.05;;;1.52;;
67278;SDS011;54193;53.746;10.058;2023-04-24T07:17:00;4.28;;;1.60;;
67278;SDS011;54193;53.746;10.058;2023-04-24T07:19:48;2.70;;;1.17;;
67278;SDS011;54193;53.746;10.058;2023-04-24T07:22:37;3.00;;;1.60;;
67278;SDS011;54193;53.746;10.058;2023-04-24T07:25:23;3.50;;;1.58;;
67278;SDS011;54193;53.746;10.058;2023-04-24T07:28:09;3.88;;;2.03;;
67278;SDS011;54193;53.746;10.058;2023-04-24T07:30:55;4.25;;;2.03;;
67278;SDS011;54193;53.746;10.058;2023-04-24T07:33:40;4.55;;;2.25;;
67278;SDS011;54193;53.746;10.058;2023-04-24T07:36:26;5.32;;;2.50;;
67278;SDS011;54193;53.746;10.058;2023-04-24T07:39:13;4.10;;;2.40;;
67278;SDS011;54193;53.746;10.058;2023-04-24T07:41:58;3.97;;;2.38;;
67278;SDS011;54193;53.746;10.058;2023-04-24T07:44:44;4.63;;;2.65;;
67278;SDS011;54193;53.746;10.058;2023-04-24T07:47:32;4.27;;;2.63;;
67278;SDS011;54193;53.746;10.058;2023-04-24T07:50:18;3.63;;;2.50;;
67278;SDS011;54193;53.746;10.058;2023-04-24T07:53:04;5.97;;;2.67;;
67278;SDS011;54193;53.746;10.058;2023-04-24T07:55:49;5.57;;;3.25;;
67278;SDS011;54193;53.746;10.058;2023-04-24T07:58:35;4.10;;;2.55;;
67278;SDS011;54193;53.746;10.058;2023-04-24T08:01:21;4.40;;;2.55;;
67278;SDS011;54193;53.746;10.058;2023-04-24T08:04:07;5.57;;;3.17;;
67278;SDS011;54193;53.746;10.058;2023-04-24T08:06:52;5.83;;;3.17;;
67278;SDS011;54193;53.746;10.058;2023-04-24T08:09:38;5.38;;;3.60;;
67278;SDS011;54193;53.746;10.058;2023-04-24T08:12:24;5.60;;;3.70;;
67278;SDS011;54193;53.746;10.058;2023-04-24T08:15:10;5.55;;;3.22;;
67278;SDS011;54193;53.746;10.058;2023-04-24T08:17:56;7.40;;;4.15;;
67278;SDS011;54193;53.746;10.058;2023-04-24T08:20:42;6.43;;;3.92;;
67278;SDS011;54193;53.746;10.058;2023-04-24T08:23:28;6.78;;;4.13;;
67278;SDS011;54193;53.746;10.058;2023-04-24T08:26:15;7.93;;;4.90;;
67278;SDS011;54193;53.746;10.058;2023-04-24T08:29:01;6.80;;;4.50;;
67278;SDS011;54193;53.746;10.058;2023-04-24T08:31:47;7.45;;;4.72;;
67278;SDS011;54193;53.746;10.058;2023-04-24T08:34:33;6.40;;;3.90;;
67278;SDS011;54193;53.746;10.058;2023-04-24T08:37:18;7.40;;;4.28;;
67278;SDS011;54193;53.746;10.058;2023-04-24T08:40:06;6.60;;;4.30;;
67278;SDS011;54193;53.746;10.058;2023-04-24T08:42:58;7.93;;;4.63;;
67278;SDS011;54193;53.746;10.058;2023-04-24T08:45:44;8.57;;;4.38;;
67278;SDS011;54193;53.746;10.058;2023-04-24T08:48:30;7.63;;;4.20;;
67278;SDS011;54193;53.746;10.058;2023-04-24T08:51:17;7.15;;;3.80;;
67278;SDS011;54193;53.746;10.058;2023-04-24T08:54:03;5.87;;;3.33;;
67278;SDS011;54193;53.746;10.058;2023-04-24T08:56:50;6.07;;;3.37;;
67278;SDS011;54193;53.746;10.058;2023-04-24T08:59:36;6.30;;;3.97;;
67278;SDS011;54193;53.746;10.058;2023-04-24T09:02:23;7.40;;;4.43;;
67278;SDS011;54193;53.746;10.058;2023-04-24T09:05:09;7.43;;;3.92;;
67278;SDS011;54193;53.746;10.058;2023-04-24T09:07:56;9.70;;;5.05;;
67278;SDS011;54193;53.746;10.058;2023-04-24T09:10:42;9.05;;;4.65;;
67278;SDS011;54193;53.746;10.058;2023-04-24T09:13:28;7.70;;;4.47;;
67278;SDS011;54193;53.746;10.058;2023-04-24T09:16:14;7.07;;;3.57;;
67278;SDS011;54193;53.746;10.058;2023-04-24T09:19:00;9.32;;;4.70;;
67278;SDS011;54193;53.746;10.058;2023-04-24T09:21:46;8.68;;;5.50;;
67278;SDS011;54193;53.746;10.058;2023-04-24T09:24:32;9.57;;;4.53;;
67278;SDS011;54193;53.746;10.058;2023-04-24T09:27:18;9.55;;;4.65;;
67278;SDS011;54193;53.746;10.058;2023-04-24T09:30:04;8.82;;;5.35;;
67278;SDS011;54193;53.746;10.058;2023-04-24T09:32:58;9.95;;;5.60;;
67278;SDS011;54193;53.746;10.058;2023-04-24T09:35:55;7.03;;;3.85;;
67278;SDS011;54193;53.746;10.058;2023-04-24T09:38:41;9.13;;;4.32;;
67278;SDS011;54193;53.746;10.058;2023-04-24T09:41:27;8.60;;;4.18;;
67278;SDS011;54193;53.746;10.058;2023-04-24T09:44:15;6.80;;;3.73;;
67278;SDS011;54193;53.746;10.058;2023-04-24T09:47:02;9.45;;;5.05;;
67278;SDS011;54193;53.746;10.058;2023-04-24T09:49:48;10.63;;;5.75;;
67278;SDS011;54193;53.746;10.058;2023-04-24T09:52:34;11.00;;;5.90;;
67278;SDS011;54193;53.746;10.058;2023-04-24T09:55:20;10.93;;;5.30;;
67278;SDS011;54193;53.746;10.058;2023-04-24T09:58:07;9.73;;;5.13;;
67278;SDS011;54193;53.746;10.058;2023-04-24T10:00:54;9.68;;;5.65;;
67278;SDS011;54193;53.746;10.058;2023-04-24T10:03:41;7.23;;;4.30;;
67278;SDS011;54193;53.746;10.058;2023-04-24T10:06:34;9.05;;;5.30;;
67278;SDS011;54193;53.746;10.058;2023-04-24T10:09:24;9.98;;;5.10;;
67278;SDS011;54193;53.746;10.058;2023-04-24T10:12:11;7.37;;;4.00;;
67278;SDS011;54193;53.746;10.058;2023-04-24T10:14:58;9.82;;;5.70;;
67278;SDS011;54193;53.746;10.058;2023-04-24T10:17:46;9.55;;;5.38;;
67278;SDS011;54193;53.746;10.058;2023-04-24T10:20:38;9.52;;;5.22;;
67278;SDS011;54193;53.746;10.058;2023-04-24T10:23:25;11.07;;;4.22;;
67278;SDS011;54193;53.746;10.058;2023-04-24T10:26:12;9.43;;;5.25;;
67278;SDS011;54193;53.746;10.058;2023-04-24T10:29:03;11.93;;;6.30;;
67278;SDS011;54193;53.746;10.058;2023-04-24T10:31:51;10.17;;;5.00;;
67278;SDS011;54193;53.746;10.058;2023-04-24T10:34:36;11.00;;;6.10;;
67278;SDS011;54193;53.746;10.058;2023-04-24T10:37:23;12.15;;;5.50;;
67278;SDS011;54193;53.746;10.058;2023-04-24T10:40:09;11.90;;;7.03;;
67278;SDS011;54193;53.746;10.058;2023-04-24T10:42:56;9.63;;;5.45;;
67278;SDS011;54193;53.746;10.058;2023-04-24T10:45:42;9.43;;;4.75;;
67278;SDS011;54193;53.746;10.058;2023-04-24T10:48:53;13.82;;;7.70;;
67278;SDS011;54193;53.746;10.058;2023-04-24T10:51:49;12.93;;;7.47;;
67278;SDS011;54193;53.746;10.058;2023-04-24T10:54:44;12.02;;;6.15;;
67278;SDS011;54193;53.746;10.058;2023-04-24T10:57:31;8.88;;;4.65;;
67278;SDS011;54193;53.746;10.058;2023-04-24T11:00:21;14.53;;;6.90;;
67278;SDS011;54193;53.746;10.058;2023-04-24T11:03:12;14.05;;;6.40;;
67278;SDS011;54193;53.746;10.058;2023-04-24T11:06:08;10.88;;;5.45;;
67278;SDS011;54193;53.746;10.058;2023-04-24T11:08:58;11.80;;;6.15;;
67278;SDS011;54193;53.746;10.058;2023-04-24T11:11:49;10.10;;;5.38;;
67278;SDS011;54193;53.746;10.058;2023-04-24T11:17:43;14.05;;;7.43;;
67278;SDS011;54193;53.746;10.058;2023-04-24T11:20:28;13.13;;;7.00;;
67278;SDS011;54193;53.746;10.058;2023-04-24T11:23:15;12.73;;;7.13;;
67278;SDS011;54193;53.746;10.058;2023-04-24T11:26:17;12.52;;;6.75;;
67278;SDS011;54193;53.746;10.058;2023-04-24T11:29:07;14.40;;;7.13;;
67278;SDS011;54193;53.746;10.058;2023-04-24T11:31:53;14.32;;;7.70;;
67278;SDS011;54193;53.746;10.058;2023-04-24T11:34:39;12.18;;;5.50;;
67278;SDS011;54193;53.746;10.058;2023-04-24T11:37:29;11.52;;;5.85;;
67278;SDS011;54193;53.746;10.058;2023-04-24T11:40:20;13.37;;;7.50;;
67278;SDS011;54193;53.746;10.058;2023-04-24T11:43:10;13.15;;;7.40;;
67278;SDS011;54193;53.746;10.058;2023-04-24T11:45:59;15.23;;;7.40;;
67278;SDS011;54193;53.746;10.058;2023-04-24T11:48:45;14.02;;;7.85;;
67278;SDS011;54193;53.746;10.058;2023-04-24T11:51:31;13.43;;;7.63;;
67278;SDS011;54193;53.746;10.058;2023-04-24T11:54:16;14.13;;;7.05;;
67278;SDS011;54193;53.746;10.058;2023-04-24T11:57:05;14.55;;;7.90;;
67278;SDS011;54193;53.746;10.058;2023-04-24T11:59:51;13.63;;;6.43;;
67278;SDS011;54193;53.746;10.058;2023-04-24T12:02:37;10.75;;;5.30;;
67278;SDS011;54193;53.746;10.058;2023-04-24T12:05:23;13.77;;;7.40;;
67278;SDS011;54193;53.746;10.058;2023-04-24T12:08:33;10.00;;;5.03;;
67278;SDS011;54193;53.746;10.058;2023-04-24T12:11:22;14.32;;;7.65;;
67278;SDS011;54193;53.746;10.058;2023-04-24T12:14:11;11.75;;;6.65;;
67278;SDS011;54193;53.746;10.058;2023-04-24T12:16:57;16.15;;;8.50;;
67278;SDS011;54193;53.746;10.058;2023-04-24T12:19:47;13.90;;;7.40;;
67278;SDS011;54193;53.746;10.058;2023-04-24T12:22:45;14.15;;;8.02;;
67278;SDS011;54193;53.746;10.058;2023-04-24T12:25:32;14.27;;;8.18;;
67278;SDS011;54193;53.746;10.058;2023-04-24T12:28:18;14.00;;;7.90;;
67278;SDS011;54193;53.746;10.058;2023-04-24T12:31:04;13.27;;;7.97;;
67278;SDS011;54193;53.746;10.058;2023-04-24T12:33:51;15.25;;;7.60;;
67278;SDS011;54193;53.746;10.058;2023-04-24T12:36:36;13.88;;;7.32;;
67278;SDS011;54193;53.746;10.058;2023-04-24T12:39:22;13.97;;;7.00;;
67278;SDS011;54193;53.746;10.058;2023-04-24T12:42:09;9.80;;;5.50;;
67278;SDS011;54193;53.746;10.058;2023-04-24T12:44:57;10.63;;;5.28;;
67278;SDS011;54193;53.746;10.058;2023-04-24T12:47:45;11.90;;;6.45;;
67278;SDS011;54193;53.746;10.058;2023-04-24T12:50:31;11.15;;;6.45;;
67278;SDS011;54193;53.746;10.058;2023-04-24T12:53:17;12.98;;;5.35;;
67278;SDS011;54193;53.746;10.058;2023-04-24T12:56:02;13.00;;;6.20;;
67278;SDS011;54193;53.746;10.058;2023-04-24T12:58:48;11.73;;;6.53;;
67278;SDS011;54193;53.746;10.058;2023-04-24T13:01:34;11.95;;;6.03;;
67278;SDS011;54193;53.746;10.058;2023-04-24T13:04:19;13.40;;;5.97;;
67278;SDS011;54193;53.746;10.058;2023-04-24T13:07:05;11.23;;;5.83;;
67278;SDS011;54193;53.746;10.058;2023-04-24T13:09:52;10.60;;;5.18;;
67278;SDS011;54193;53.746;10.058;2023-04-24T13:12:38;13.23;;;7.10;;
67278;SDS011;54193;53.746;10.058;2023-04-24T13:15:24;10.70;;;5.80;;
67278;SDS011;54193;53.746;10.058;2023-04-24T13:18:10;10.07;;;5.85;;
67278;SDS011;54193;53.746;10.058;2023-04-24T13:20:55;11.75;;;7.20;;
67278;SDS011;54193;53.746;10.058;2023-04-24T13:23:41;10.37;;;6.13;;
67278;SDS011;54193;53.746;10.058;2023-04-24T13:26:27;11.65;;;6.05;;
67278;SDS011;54193;53.746;10.058;2023-04-24T13:29:13;10.18;;;5.53;;
67278;SDS011;54193;53.746;10.058;2023-04-24T13:31:58;10.63;;;6.70;;
67278;SDS011;54193;53.746;10.058;2023-04-24T13:34:45;10.45;;;5.40;;
67278;SDS011;54193;53.746;10.058;2023-04-24T13:37:31;9.95;;;5.82;;
67278;SDS011;54193;53.746;10.058;2023-04-24T13:40:17;9.52;;;5.72;;
67278;SDS011;54193;53.746;10.058;2023-04-24T13:43:02;7.33;;;4.20;;
67278;SDS011;54193;53.746;10.058;2023-04-24T13:45:48;7.97;;;4.50;;
67278;SDS011;54193;53.746;10.058;2023-04-24T13:48:35;8.60;;;5.00;;
67278;SDS011;54193;53.746;10.058;2023-04-24T13:51:20;9.03;;;4.73;;
67278;SDS011;54193;53.746;10.058;2023-04-24T13:54:06;11.35;;;5.88;;
67278;SDS011;54193;53.746;10.058;2023-04-24T13:56:52;11.63;;;5.90;;
67278;SDS011;54193;53.746;10.058;2023-04-24T13:59:38;10.38;;;5.65;;
67278;SDS011;54193;53.746;10.058;2023-04-24T14:02:23;11.20;;;5.95;;
67278;SDS011;54193;53.746;10.058;2023-04-24T14:05:09;11.27;;;6.30;;
67278;SDS011;54193;53.746;10.058;2023-04-24T14:07:56;11.13;;;5.03;;
67278;SDS011;54193;53.746;10.058;2023-04-24T14:10:42;10.43;;;5.70;;
67278;SDS011;54193;53.746;10.058;2023-04-24T14:13:28;11.13;;;6.05;;
67278;SDS011;54193;53.746;10.058;2023-04-24T14:16:14;10.85;;;6.22;;
67278;SDS011;54193;53.746;10.058;2023-04-24T14:18:59;11.63;;;5.97;;
67278;SDS011;54193;53.746;10.058;2023-04-24T14:21:45;11.80;;;6.47;;
67278;SDS011;54193;53.746;10.058;2023-04-24T14:24:31;10.45;;;5.75;;
67278;SDS011;54193;53.746;10.058;2023-04-24T14:27:17;11.45;;;6.75;;
67278;SDS011;54193;53.746;10.058;2023-04-24T14:30:03;11.63;;;6.00;;
67278;SDS011;54193;53.746;10.058;2023-04-24T14:32:49;12.88;;;6.93;;
67278;SDS011;54193;53.746;10.058;2023-04-24T14:35:35;10.48;;;6.05;;
67278;SDS011;54193;53.746;10.058;2023-04-24T14:38:21;10.02;;;6.30;;
67278;SDS011;54193;53.746;10.058;2023-04-24T14:41:07;9.20;;;5.43;;
67278;SDS011;54193;53.746;10.058;2023-04-24T14:43:55;11.70;;;6.45;;
67278;SDS011;54193;53.746;10.058;2023-04-24T14:46:41;11.32;;;5.20;;
67278;SDS011;54193;53.746;10.058;2023-04-24T14:49:27;14.80;;;7.97;;
67278;SDS011;54193;53.746;10.058;2023-04-24T14:52:12;15.15;;;7.05;;
67278;SDS011;54193;53.746;10.058;2023-04-24T14:54:58;17.77;;;7.82;;
67278;SDS011;54193;53.746;10.058;2023-04-24T14:57:44;10.45;;;5.30;;
67278;SDS011;54193;53.746;10.058;2023-04-24T15:00:29;8.93;;;3.87;;
67278;SDS011;54193;53.746;10.058;2023-04-24T15:03:15;7.78;;;3.70;;
67278;SDS011;54193;53.746;10.058;2023-04-24T15:06:02;9.23;;;3.53;;
67278;SDS011;54193;53.746;10.058;2023-04-24T15:08:48;8.50;;;3.80;;
67278;SDS011;54193;53.746;10.058;2023-04-24T15:11:34;8.27;;;4.05;;
67278;SDS011;54193;53.746;10.058;2023-04-24T15:14:19;7.40;;;3.10;;
67278;SDS011;54193;53.746;10.058;2023-04-24T15:17:05;8.10;;;3.50;;
67278;SDS011;54193;53.746;10.058;2023-04-24T15:19:51;9.18;;;3.47;;
67278;SDS011;54193;53.746;10.058;2023-04-24T15:22:37;8.95;;;3.83;;
67278;SDS011;54193;53.746;10.058;2023-04-24T15:25:22;8.73;;;3.92;;
67278;SDS011;54193;53.746;10.058;2023-04-24T15:28:13;9.37;;;3.93;;
67278;SDS011;54193;53.746;10.058;2023-04-24T15:31:01;8.68;;;3.53;;
67278;SDS011;54193;53.746;10.058;2023-04-24T15:33:46;7.53;;;3.08;;
67278;SDS011;54193;53.746;10.058;2023-04-24T15:36:32;8.07;;;3.53;;
67278;SDS011;54193;53.746;10.058;2023-04-24T15:39:20;7.60;;;3.00;;
67278;SDS011;54193;53.746;10.058;2023-04-24T15:42:07;6.57;;;2.83;;
67278;SDS011;54193;53.746;10.058;2023-04-24T15:44:53;7.18;;;2.83;;
67278;SDS011;54193;53.746;10.058;2023-04-24T15:47:39;5.43;;;2.65;;
67278;SDS011;54193;53.746;10.058;2023-04-24T15:50:25;6.13;;;2.63;;
67278;SDS011;54193;53.746;10.058;2023-04-24T15:53:11;5.40;;;2.53;;
67278;SDS011;54193;53.746;10.058;2023-04-24T15:55:57;7.60;;;2.53;;
67278;SDS011;54193;53.746;10.058;2023-04-24T15:58:42;7.18;;;3.08;;
67278;SDS011;54193;53.746;10.058;2023-04-24T16:01:29;7.75;;;3.90;;
67278;SDS011;54193;53.746;10.058;2023-04-24T16:04:15;8.20;;;3.77;;
67278;SDS011;54193;53.746;10.058;2023-04-24T16:07:01;8.23;;;4.07;;
67278;SDS011;54193;53.746;10.058;2023-04-24T16:09:46;12.15;;;5.05;;
67278;SDS011;54193;53.746;10.058;2023-04-24T16:12:32;14.90;;;5.97;;
67278;SDS011;54193;53.746;10.058;2023-04-24T16:15:19;13.60;;;5.80;;
67278;SDS011;54193;53.746;10.058;2023-04-24T16:18:05;11.55;;;5.28;;
67278;SDS011;54193;53.746;10.058;2023-04-24T16:20:51;14.07;;;6.13;;
67278;SDS011;54193;53.746;10.058;2023-04-24T16:23:37;13.55;;;5.72;;
67278;SDS011;54193;53.746;10.058;2023-04-24T16:26:22;11.73;;;4.93;;